Time;durP1;ratioP1;P1;durP2;ratioP2;P2;SDS_P1;SDS_P2;PMS_P1;PMS_P2;Temp;Humidity;BMP_temperature;BMP_pressure;BME280_temperature;BME280_humidity;BME280_pressure;Samples;Min_cycle;Max_cycle;Signal;HPM_P1;HPM_P2
2022/02/07 00:01:47;;;;;;;3.25;3.10;;;;;;;3.73;100.00;95090.75;4966085;28;20533;-55
2022/02/07 00:04:20;;;;;;;3.13;3.00;;;;;;;3.69;100.00;95095.41;4960165;28;20073;-57
2022/02/07 00:06:49;;;;;;;3.10;3.00;;;;;;;3.77;100.00;95090.34;4967016;28;20418;-48
2022/02/07 00:09:17;;;;;;;3.22;3.13;;;;;;;3.63;100.00;95077.72;4966447;28;20697;-56
2022/02/07 00:11:45;;;;;;;3.10;3.00;;;;;;;3.78;100.00;95084.16;4971219;28;20078;-55
2022/02/07 00:14:14;;;;;;;3.25;3.13;;;;;;;3.75;100.00;95073.19;4963835;28;20486;-55
2022/02/07 00:16:44;;;;;;;3.00;2.90;;;;;;;3.83;100.00;95067.31;4966368;28;20070;-53
2022/02/07 00:19:19;;;;;;;3.30;3.10;;;;;;;3.73;100.00;95060.28;4965917;28;20073;-51
2022/02/07 00:21:49;;;;;;;3.10;3.00;;;;;;;3.56;100.00;95060.97;4966014;28;20075;-53
2022/02/07 00:24:17;;;;;;;3.45;3.25;;;;;;;3.54;100.00;95068.94;4966811;28;20059;-55
2022/02/07 00:26:46;;;;;;;3.00;2.90;;;;;;;3.39;100.00;95064.25;4963049;28;20093;-58
2022/02/07 00:29:15;;;;;;;3.40;3.20;;;;;;;3.46;100.00;95050.53;4969027;28;20105;-57
2022/02/07 00:31:45;;;;;;;3.10;3.00;;;;;;;3.55;100.00;95059.34;4967055;28;20066;-55
2022/02/07 00:34:14;;;;;;;3.38;3.17;;;;;;;3.60;100.00;95095.41;4966383;28;20066;-54
2022/02/07 00:36:43;;;;;;;3.50;3.30;;;;;;;3.43;100.00;95125.56;4966479;28;20465;-55
2022/02/07 00:39:18;;;;;;;3.30;3.10;;;;;;;3.39;100.00;95140.63;4966691;28;20074;-52
2022/02/07 00:41:51;;;;;;;3.40;3.20;;;;;;;3.22;100.00;95110.00;4965615;28;20078;-52
2022/02/07 00:44:20;;;;;;;3.03;2.92;;;;;;;3.56;100.00;95089.66;4967575;28;20090;-59
2022/02/07 00:46:57;;;;;;;3.63;3.42;;;;;;;3.53;100.00;95050.81;4965945;28;20070;-56
2022/02/07 00:49:26;;;;;;;3.20;3.10;;;;;;;3.59;100.00;95062.50;4962927;28;20085;-57
2022/02/07 00:51:55;;;;;;;3.25;3.10;;;;;;;3.62;100.00;95073.47;4968065;28;20553;-57
2022/02/07 00:54:23;;;;;;;3.50;3.20;;;;;;;3.65;100.00;95094.06;4975085;28;20081;-51
2022/02/07 00:56:52;;;;;;;3.40;3.20;;;;;;;3.62;100.00;95081.28;4966797;28;20089;-56
2022/02/07 00:59:20;;;;;;;3.17;3.00;;;;;;;3.63;100.00;95113.38;4967723;28;20078;-59
2022/02/07 01:01:51;;;;;;;3.10;3.00;;;;;;;3.67;100.00;95133.81;4966218;28;20066;-58
2022/02/07 01:04:20;;;;;;;3.25;3.05;;;;;;;3.72;100.00;95128.22;4965192;28;20078;-56
2022/02/07 01:06:49;;;;;;;3.22;3.10;;;;;;;3.54;100.00;95131.50;4965570;28;20066;-56
2022/02/07 01:09:20;;;;;;;3.03;2.92;;;;;;;3.60;100.00;95150.13;4974851;28;20089;-59
2022/02/07 01:12:01;;;;;;;3.10;3.00;;;;;;;3.54;100.00;95152.34;4969501;28;20086;-58
2022/02/07 01:14:45;;;;;;;;;;;;;;;3.40;100.00;95162.28;4970148;28;20097;-57
2022/02/07 01:20:57;;;;;;;3.30;3.10;;;;;;;3.37;100.00;95168.59;4967016;28;20067;-52
2022/02/07 01:51:13;;;;;;;3.30;3.10;;;;;;;3.16;100.00;95285.03;4962944;28;20070;-49
2022/02/07 01:53:54;;;;;;;3.20;3.10;;;;;;;3.20;100.00;95292.47;4962442;28;20078;-54
2022/02/07 01:56:28;;;;;;;3.10;3.00;;;;;;;3.26;100.00;95309.38;4967761;28;20085;-50
2022/02/07 01:58:56;;;;;;;3.20;3.10;;;;;;;3.30;100.00;95314.22;4964454;28;20070;-51
2022/02/07 02:01:25;;;;;;;3.30;3.10;;;;;;;3.38;100.00;95330.97;4963743;28;20058;-52
2022/02/07 02:03:53;;;;;;;3.20;3.10;;;;;;;3.58;100.00;95324.91;4964986;28;20561;-51
2022/02/07 02:06:23;;;;;;;3.20;3.10;;;;;;;3.50;100.00;95316.91;4965303;28;20062;-53
2022/02/07 02:08:54;;;;;;;3.20;3.10;;;;;;;3.56;100.00;95313.78;4964418;28;20069;-57
2022/02/07 02:11:22;;;;;;;3.40;3.20;;;;;;;3.46;100.00;95336.38;4968313;28;20070;-59
2022/02/07 02:14:08;;;;;;;3.00;2.90;;;;;;;3.36;100.00;95340.69;4967144;28;20069;-53
2022/02/07 02:16:45;;;;;;;3.20;3.10;;;;;;;3.42;100.00;95367.06;4968715;28;20062;-55
2022/02/07 02:36:16;;;;;;;3.40;3.20;;;;;;;3.37;100.00;95353.56;4964813;28;21227;-58
2022/02/07 02:39:04;;;;;;;4.03;3.72;;;;;;;3.56;100.00;95369.34;4966183;28;20083;-51
2022/02/07 02:47:08;;;;;;;3.50;3.30;;;;;;;3.60;100.00;95434.25;4966672;28;21398;-54
2022/02/07 02:49:48;;;;;;;3.40;3.20;;;;;;;3.62;100.00;95437.56;4967205;28;20059;-52
2022/02/07 02:52:17;;;;;;;3.67;3.47;;;;;;;3.55;100.00;95432.03;4972131;28;20464;-54
2022/02/07 02:54:47;;;;;;;3.30;3.10;;;;;;;3.70;100.00;95440.34;4969954;28;20101;-53
2022/02/07 02:57:15;;;;;;;3.40;3.20;;;;;;;3.49;100.00;95442.97;4961460;28;20561;-55
2022/02/07 02:59:43;;;;;;;3.70;3.50;;;;;;;3.59;100.00;95461.28;4955213;28;20513;-55
2022/02/07 03:02:12;;;;;;;3.50;3.30;;;;;;;3.51;100.00;95428.84;4980583;28;20072;-53
2022/02/07 03:04:40;;;;;;;3.42;3.22;;;;;;;3.42;100.00;95426.19;4969423;28;20062;-51
2022/02/07 03:07:09;;;;;;;3.63;3.42;;;;;;;3.50;100.00;95444.59;4967327;28;20085;-54
2022/02/07 03:09:45;;;;;;;3.33;3.13;;;;;;;3.53;100.00;95473.84;4966937;28;20529;-52
2022/02/07 03:12:17;;;;;;;3.50;3.30;;;;;;;3.49;100.00;95492.47;4967995;28;20163;-54
2022/02/07 03:14:47;;;;;;;3.40;3.20;;;;;;;3.57;100.00;95495.28;4997368;28;20532;-55
2022/02/07 03:17:15;;;;;;;3.40;3.20;;;;;;;3.45;100.00;95531.00;4965050;28;20078;-52
2022/02/07 03:19:43;;;;;;;3.50;3.30;;;;;;;3.73;100.00;95526.13;4967855;28;20490;-55
2022/02/07 03:22:12;;;;;;;3.47;3.28;;;;;;;3.75;100.00;95530.28;4967874;28;20085;-54
2022/02/07 03:24:40;;;;;;;3.30;3.10;;;;;;;3.70;100.00;95547.25;4965599;28;20074;-54
2022/02/07 03:27:09;;;;;;;3.30;3.10;;;;;;;3.64;100.00;95560.75;4967842;28;20066;-57
2022/02/07 03:29:38;;;;;;;3.30;3.10;;;;;;;3.64;100.00;95558.16;4969307;28;20081;-55
2022/02/07 03:32:08;;;;;;;3.50;3.30;;;;;;;3.59;100.00;95571.56;4966780;28;21427;-59
2022/02/07 03:34:36;;;;;;;3.87;3.67;;;;;;;3.76;100.00;95570.22;4967032;28;20078;-53
2022/02/07 03:37:06;;;;;;;3.20;3.10;;;;;;;3.82;100.00;95559.28;4966646;28;20082;-54
2022/02/07 03:39:34;;;;;;;3.45;3.25;;;;;;;3.73;100.00;95552.22;4972115;28;20077;-53
2022/02/07 03:42:03;;;;;;;3.40;3.20;;;;;;;3.83;100.00;95578.38;4970347;28;20058;-55
2022/02/07 03:44:31;;;;;;;3.20;3.10;;;;;;;3.77;100.00;95588.31;4983308;28;20085;-54
2022/02/07 03:47:01;;;;;;;3.35;3.10;;;;;;;3.81;100.00;95607.16;4967166;28;20062;-51
2022/02/07 03:49:31;;;;;;;3.40;3.20;;;;;;;3.71;100.00;95603.63;4966640;28;20070;-57
2022/02/07 03:51:59;;;;;;;3.20;3.10;;;;;;;3.77;100.00;95621.41;4966431;28;20082;-56
2022/02/07 03:54:28;;;;;;;3.30;3.10;;;;;;;3.74;100.00;95625.06;4965117;28;20074;-54
2022/02/07 03:56:56;;;;;;;3.17;3.08;;;;;;;3.85;100.00;95634.63;4967022;28;20552;-54
2022/02/07 03:59:24;;;;;;;3.30;3.10;;;;;;;3.76;100.00;95615.38;4969296;28;20078;-57
2022/02/07 04:01:53;;;;;;;3.95;3.10;;;;;;;3.85;100.00;95646.84;4966204;28;20063;-51
2022/02/07 04:04:23;;;;;;;3.60;3.40;;;;;;;3.58;100.00;95668.97;4966732;28;20089;-53
2022/02/07 04:06:52;;;;;;;3.25;3.05;;;;;;;3.78;100.00;95664.75;4966416;28;20054;-56
2022/02/07 04:09:24;;;;;;;3.20;3.00;;;;;;;3.59;100.00;95686.28;4965166;28;20066;-52
2022/02/07 04:11:58;;;;;;;3.20;3.00;;;;;;;3.53;100.00;95690.19;4966076;28;20073;-55
2022/02/07 04:14:26;;;;;;;3.25;3.10;;;;;;;3.57;100.00;95704.63;4967772;28;20082;-56
2022/02/07 04:16:55;;;;;;;3.28;3.00;;;;;;;3.75;100.00;95741.47;4966860;28;20705;-53
2022/02/07 04:19:32;;;;;;;3.17;3.08;;;;;;;3.69;100.00;95759.38;4971051;28;20601;-53
2022/02/07 04:22:03;;;;;;;3.10;2.90;;;;;;;3.66;100.00;95746.56;4966732;28;20473;-52
2022/02/07 04:24:32;;;;;;;3.20;3.00;;;;;;;3.11;100.00;95758.63;4965757;28;20065;-56
2022/02/07 04:27:01;;;;;;;3.40;3.20;;;;;;;3.14;100.00;95755.81;4966288;28;20062;-53
2022/02/07 04:29:29;;;;;;;3.45;3.25;;;;;;;3.07;100.00;95766.69;4967624;28;20089;-51
2022/02/07 04:31:57;;;;;;;3.70;3.50;;;;;;;3.03;100.00;95767.88;4964396;28;20062;-54
2022/02/07 04:34:27;;;;;;;3.58;3.30;;;;;;;3.10;100.00;95778.66;4965283;28;20058;-55
2022/02/07 04:36:57;;;;;;;3.85;3.53;;;;;;;2.98;100.00;95772.56;4963735;28;20066;-51
2022/02/07 04:39:25;;;;;;;3.90;3.58;;;;;;;3.17;100.00;95786.84;4966937;28;20078;-52
2022/02/07 04:41:56;;;;;;;3.60;3.30;;;;;;;3.04;100.00;95786.91;4966691;28;20080;-56
2022/02/07 04:44:33;;;;;;;3.60;3.40;;;;;;;3.12;100.00;95781.13;4968050;28;20078;-54
2022/02/07 04:47:11;;;;;;;3.63;3.42;;;;;;;3.12;100.00;95765.50;4966361;28;20066;-54
2022/02/07 04:50:02;;;;;;;3.55;3.35;;;;;;;3.03;100.00;95775.69;4964290;28;20517;-55
2022/02/07 04:52:55;;;;;;;3.78;3.58;;;;;;;3.10;100.00;95783.88;4964853;28;20062;-54
2022/02/07 04:55:34;;;;;;;3.85;3.65;;;;;;;3.11;100.00;95806.34;4967395;28;20054;-55
2022/02/07 04:58:07;;;;;;;5.38;3.72;;;;;;;3.13;100.00;95814.03;4970349;28;20066;-51
2022/02/07 05:00:48;;;;;;;4.35;4.05;;;;;;;3.19;100.00;95808.38;4965044;28;20544;-55
2022/02/07 05:03:21;;;;;;;3.65;3.45;;;;;;;3.25;100.00;95823.56;4966102;28;20074;-53
2022/02/07 05:14:10;;;;;;;3.95;3.70;;;;;;;3.42;100.00;95854.38;4965154;28;20881;-58
2022/02/07 05:16:40;;;;;;;3.50;3.30;;;;;;;3.52;100.00;95864.94;4964874;28;20568;-54
2022/02/07 05:19:08;;;;;;;3.72;3.40;;;;;;;3.41;100.00;95872.75;4965696;28;20073;-52
2022/02/07 05:21:38;;;;;;;3.80;3.50;;;;;;;3.52;100.00;95893.63;4965775;28;20062;-55
2022/02/07 05:24:07;;;;;;;3.60;3.40;;;;;;;3.43;100.00;95902.13;4966705;28;20085;-51
2022/02/07 05:26:35;;;;;;;3.60;3.40;;;;;;;3.64;100.00;95910.09;4965775;28;20285;-54
2022/02/07 05:29:05;;;;;;;3.38;3.17;;;;;;;3.54;100.00;95920.38;4965299;28;22364;-55
2022/02/07 05:31:34;;;;;;;3.78;3.40;;;;;;;3.50;100.00;95922.38;4953229;28;20543;-50
2022/02/07 05:34:06;;;;;;;3.60;3.40;;;;;;;3.54;100.00;95934.28;4950635;28;20063;-55
2022/02/07 05:36:40;;;;;;;3.75;3.50;;;;;;;3.65;100.00;95938.69;4942765;28;20186;-55
2022/02/07 05:39:16;;;;;;;5.63;3.63;;;;;;;3.60;100.00;95937.34;4959331;28;20475;-54
2022/02/07 05:41:45;;;;;;;3.50;3.30;;;;;;;3.60;100.00;95951.22;4965373;28;20082;-56
2022/02/07 05:44:14;;;;;;;3.97;3.45;;;;;;;3.42;100.00;95948.19;4964738;28;20182;-50
2022/02/07 05:46:43;;;;;;;3.90;3.60;;;;;;;3.51;100.00;95947.53;4964989;28;20070;-57
2022/02/07 05:49:11;;;;;;;3.80;3.50;;;;;;;3.50;100.00;95958.88;4969675;28;20077;-54
2022/02/07 05:51:40;;;;;;;3.75;3.55;;;;;;;3.45;100.00;95966.22;4968511;28;20078;-58
2022/02/07 05:54:11;;;;;;;3.50;3.30;;;;;;;3.40;100.00;95981.34;4969244;28;20467;-59
2022/02/07 05:56:39;;;;;;;4.40;4.00;;;;;;;3.28;100.00;95970.06;4969372;28;20082;-56
2022/02/07 05:59:08;;;;;;;4.32;3.60;;;;;;;3.29;100.00;95995.16;4975773;28;20885;-56
2022/02/07 06:01:36;;;;;;;4.00;3.70;;;;;;;3.31;100.00;96001.13;4972376;28;20063;-51
2022/02/07 06:04:05;;;;;;;4.10;3.70;;;;;;;3.37;100.00;95999.81;4971861;28;20074;-54
2022/02/07 06:06:33;;;;;;;4.30;3.75;;;;;;;3.20;100.00;96019.31;4975597;28;20081;-55
2022/02/07 06:09:02;;;;;;;3.78;3.58;;;;;;;3.28;100.00;96032.59;4969129;28;20059;-57
2022/02/07 06:11:31;;;;;;;4.95;3.72;;;;;;;3.21;100.00;96031.38;4977584;28;20086;-58
2022/02/07 06:14:00;;;;;;;3.50;3.30;;;;;;;3.23;100.00;96039.91;4974746;28;20085;-57
2022/02/07 06:16:31;;;;;;;3.95;3.67;;;;;;;3.27;100.00;96061.38;4969570;28;20074;-57
2022/02/07 06:19:01;;;;;;;4.97;3.35;;;;;;;3.14;100.00;96066.63;4966513;28;20043;-56
2022/02/07 06:21:32;;;;;;;3.90;3.60;;;;;;;3.19;100.00;96068.91;4969210;28;20539;-57
2022/02/07 06:24:02;;;;;;;;;;;;;;;3.11;100.00;96077.25;4969166;28;20509;-52
2022/02/07 06:26:32;;;;;;;6.05;3.63;;;;;;;3.14;100.00;96105.72;4970351;28;20412;-53
2022/02/07 06:29:00;;;;;;;4.88;3.50;;;;;;;3.16;100.00;96105.59;4966453;28;20551;-53
2022/02/07 06:31:29;;;;;;;3.50;3.30;;;;;;;3.14;100.00;96120.50;4968701;28;20078;-56
2022/02/07 06:33:57;;;;;;;3.80;3.50;;;;;;;3.24;100.00;96121.53;4970163;28;20073;-55
2022/02/07 06:36:27;;;;;;;3.40;3.20;;;;;;;3.12;100.00;96128.41;4968793;28;20070;-57
2022/02/07 06:38:56;;;;;;;3.95;3.65;;;;;;;3.24;100.00;96137.16;4967516;28;20086;-53
2022/02/07 06:41:24;;;;;;;3.47;3.28;;;;;;;3.38;100.00;96146.63;4971171;28;20089;-57
2022/02/07 06:43:54;;;;;;;3.80;3.50;;;;;;;3.25;100.00;96147.47;4967451;28;20051;-54
2022/02/07 06:46:24;;;;;;;4.00;3.60;;;;;;;3.40;100.00;96157.75;4961471;28;20101;-59
2022/02/07 06:48:52;;;;;;;3.78;3.35;;;;;;;3.42;100.00;96167.13;4968362;28;20670;-56
2022/02/07 06:51:21;;;;;;;3.70;3.50;;;;;;;3.44;100.00;96175.69;4968029;28;20085;-55
2022/02/07 06:53:51;;;;;;;5.80;3.85;;;;;;;3.14;100.00;96185.63;4967846;28;20077;-54
2022/02/07 06:56:20;;;;;;;3.63;3.42;;;;;;;3.47;100.00;96193.69;4970858;28;20097;-55
2022/02/07 06:58:49;;;;;;;5.47;3.78;;;;;;;3.48;100.00;96203.19;4967588;28;20078;-57
2022/02/07 07:01:19;;;;;;;3.50;3.30;;;;;;;3.41;100.00;96204.56;4967635;28;20082;-56
2022/02/07 07:03:47;;;;;;;4.80;4.15;;;;;;;3.55;100.00;96206.22;4968346;28;20085;-56
2022/02/07 07:06:16;;;;;;;3.85;3.55;;;;;;;3.36;100.00;96222.28;4967562;28;20081;-58
2022/02/07 07:08:48;;;;;;;3.88;3.55;;;;;;;3.41;100.00;96212.41;4968494;28;20109;-58
2022/02/07 07:11:20;;;;;;;3.60;3.40;;;;;;;3.57;100.00;96233.81;4970758;28;20075;-54
2022/02/07 07:13:52;;;;;;;4.20;3.50;;;;;;;3.35;100.00;96231.06;4969937;28;20108;-57
2022/02/07 07:16:50;;;;;;;4.38;3.30;;;;;;;3.60;100.00;96242.38;4968583;28;20521;-57
2022/02/07 07:19:19;;;;;;;4.45;4.10;;;;;;;3.60;100.00;96252.81;4964625;28;20062;-57
2022/02/07 07:21:48;;;;;;;4.35;3.22;;;;;;;3.55;100.00;96266.19;4968117;28;20070;-57
2022/02/07 07:24:17;;;;;;;3.83;3.50;;;;;;;3.63;100.00;96248.22;4968088;28;20062;-57
2022/02/07 07:26:46;;;;;;;3.85;3.50;;;;;;;3.50;100.00;96256.03;4967323;28;20082;-59
2022/02/07 07:29:18;;;;;;;3.90;3.60;;;;;;;3.52;100.00;96269.00;4969278;28;20110;-59
2022/02/07 07:31:51;;;;;;;5.72;3.40;;;;;;;3.50;100.00;96269.06;4968078;28;20070;-59
2022/02/07 07:34:20;;;;;;;3.40;3.20;;;;;;;3.62;100.00;96269.19;4966759;28;20075;-57
2022/02/07 07:36:48;;;;;;;3.50;3.30;;;;;;;3.54;100.00;96283.59;4969394;28;20462;-57
2022/02/07 07:39:17;;;;;;;3.63;3.35;;;;;;;3.53;100.00;96279.28;4966992;28;20066;-56
2022/02/07 07:41:48;;;;;;;3.88;3.58;;;;;;;3.70;100.00;96285.94;4967599;28;20074;-58
2022/02/07 07:44:18;;;;;;;3.92;3.63;;;;;;;3.50;100.00;96302.13;4969160;28;20067;-58
2022/02/07 07:46:53;;;;;;;3.63;3.33;;;;;;;3.68;100.00;96302.63;4967429;28;20633;-55
2022/02/07 07:49:31;;;;;;;3.45;3.25;;;;;;;3.73;100.00;96300.56;4966682;28;20694;-51
2022/02/07 07:52:05;;;;;;;4.53;3.53;;;;;;;3.74;100.00;96305.66;4963752;28;20070;-58
2022/02/07 07:54:47;;;;;;;3.78;3.50;;;;;;;3.60;100.00;96282.31;4965726;28;20536;-56
2022/02/07 08:02:51;;;;;;;5.28;3.58;;;;;;;3.65;100.00;96324.56;4963239;28;20046;-54
2022/02/07 08:05:29;;;;;;;3.30;3.10;;;;;;;3.86;100.00;96326.63;4966500;28;20086;-54
2022/02/07 08:08:07;;;;;;;3.55;3.25;;;;;;;3.92;100.00;96336.63;4967593;28;20075;-54
2022/02/07 08:10:50;;;;;;;3.60;3.30;;;;;;;3.88;100.00;96348.22;4966669;28;20066;-59
2022/02/07 08:13:19;;;;;;;3.30;3.00;;;;;;;4.02;100.00;96355.91;4966874;28;20094;-57
2022/02/07 08:15:49;;;;;;;3.25;3.00;;;;;;;4.10;100.00;96360.63;4965611;28;20093;-53
2022/02/07 08:18:19;;;;;;;3.47;3.10;;;;;;;3.83;100.00;96350.31;4965498;28;20059;-53
2022/02/07 08:20:47;;;;;;;3.40;3.10;;;;;;;4.04;100.00;96359.25;4966492;28;20086;-55
2022/02/07 08:23:15;;;;;;;3.28;3.03;;;;;;;4.01;100.00;96367.28;4968001;28;20505;-55
2022/02/07 08:25:44;;;;;;;3.30;3.10;;;;;;;3.93;100.00;96370.44;4967141;28;20565;-57
2022/02/07 08:28:32;;;;;;;5.72;3.25;;;;;;;4.19;100.00;96389.47;4966572;28;20058;-54
2022/02/07 08:31:01;;;;;;;4.50;3.50;;;;;;;4.10;100.00;96394.53;4964964;28;20085;-55
2022/02/07 08:33:31;;;;;;;3.92;3.50;;;;;;;3.77;100.00;96403.72;4969072;28;20121;-56
2022/02/07 08:35:59;;;;;;;3.92;3.50;;;;;;;3.96;100.00;96411.97;4968398;28;20078;-54
2022/02/07 08:38:28;;;;;;;5.93;3.50;;;;;;;4.06;100.00;96412.19;4968071;28;20466;-49
2022/02/07 08:40:57;;;;;;;3.65;3.38;;;;;;;4.35;100.00;96411.94;4965351;28;20182;-57
2022/02/07 08:43:27;;;;;;;3.30;3.08;;;;;;;4.60;100.00;96419.69;4966330;28;20053;-51
2022/02/07 08:45:55;;;;;;;5.20;3.28;;;;;;;4.40;100.00;96431.53;4965792;28;20529;-57
2022/02/07 08:48:24;;;;;;;3.30;3.10;;;;;;;4.51;100.00;96439.47;4965966;28;20073;-56
2022/02/07 08:50:57;;;;;;;4.23;3.07;;;;;;;4.55;100.00;96436.63;4965296;28;20082;-51
2022/02/07 08:53:31;;;;;;;8.90;3.08;;;;;;;4.45;100.00;96434.66;4967194;28;20086;-51
2022/02/07 08:56:01;;;;;;;3.35;3.05;;;;;;;4.49;100.00;96438.72;4965646;28;20564;-54
2022/02/07 08:58:33;;;;;;;3.65;3.35;;;;;;;4.51;100.00;96439.47;4966327;28;20074;-52
2022/02/07 09:01:12;;;;;;;3.58;3.25;;;;;;;4.39;100.00;96445.53;4964840;28;20070;-55
2022/02/07 09:04:19;;;;;;;3.38;2.95;;;;;;;4.63;100.00;96458.66;4966202;28;20062;-58
2022/02/07 09:07:00;;;;;;;3.67;3.20;;;;;;;4.74;100.00;96461.31;4966372;28;20066;-56
2022/02/07 09:09:28;;;;;;;3.90;3.30;;;;;;;4.63;100.00;96471.69;4966074;28;20093;-57
2022/02/07 09:11:58;;;;;;;3.72;3.25;;;;;;;4.51;100.00;96483.03;4966623;28;21232;-55
2022/02/07 09:14:32;;;;;;;3.42;3.10;;;;;;;4.88;100.00;96485.63;4968804;28;20078;-56
2022/02/07 09:17:01;;;;;;;3.88;3.42;;;;;;;4.64;100.00;96494.25;4965899;28;20078;-52
2022/02/07 09:19:29;;;;;;;6.22;3.35;;;;;;;4.51;100.00;96489.06;4964890;28;20081;-58
2022/02/07 09:21:59;;;;;;;4.00;2.97;;;;;;;4.82;100.00;96523.50;4965475;28;20074;-56
2022/02/07 09:24:27;;;;;;;5.50;3.27;;;;;;;4.55;100.00;96518.44;4969533;28;20513;-58
2022/02/07 09:26:55;;;;;;;4.43;3.45;;;;;;;4.63;100.00;96500.44;4969487;28;20093;-56
2022/02/07 09:29:25;;;;;;;3.40;3.10;;;;;;;4.36;100.00;96518.84;4972129;28;20090;-56
2022/02/07 09:31:53;;;;;;;5.22;3.60;;;;;;;4.23;100.00;96523.22;4957645;28;20080;-51
2022/02/07 09:34:22;;;;;;;4.75;3.40;;;;;;;4.16;100.00;96521.97;4967575;28;20158;-56
2022/02/07 09:36:53;;;;;;;8.63;3.05;;;;;;;4.21;100.00;96552.03;4967918;28;20078;-59
2022/02/07 09:39:30;;;;;;;3.38;3.08;;;;;;;4.11;100.00;96560.59;4969813;28;20071;-53
2022/02/07 09:41:59;;;;;;;4.50;3.20;;;;;;;4.23;100.00;96564.97;4970042;28;20074;-58
2022/02/07 09:44:39;;;;;;;3.50;3.20;;;;;;;4.40;100.00;96561.22;4972181;28;20071;-50
2022/02/07 09:47:11;;;;;;;6.90;3.60;;;;;;;4.07;100.00;96548.69;4968434;28;20446;-54
2022/02/07 09:49:39;;;;;;;3.63;3.33;;;;;;;4.32;100.00;96571.38;4969484;28;20071;-51
2022/02/07 09:52:09;;;;;;;5.00;3.63;;;;;;;4.35;100.00;96586.84;4968794;28;20081;-50
2022/02/07 09:54:39;;;;;;;3.63;3.22;;;;;;;4.26;100.00;96590.88;4969801;28;20070;-56
2022/02/07 09:57:08;;;;;;;5.55;3.55;;;;;;;4.36;100.00;96597.16;4968748;28;20074;-58
2022/02/07 09:59:37;;;;;;;3.55;3.25;;;;;;;4.20;100.00;96583.47;4970685;28;20082;-55
2022/02/07 10:02:17;;;;;;;8.50;3.67;;;;;;;4.27;100.00;96597.78;4968232;28;20132;-55
2022/02/07 10:04:51;;;;;;;4.25;3.70;;;;;;;4.17;100.00;96601.94;4968481;28;20067;-55
2022/02/07 10:07:25;;;;;;;6.60;3.40;;;;;;;4.03;100.00;96603.69;4969197;28;20093;-55
2022/02/07 10:10:15;;;;;;;6.80;3.42;;;;;;;4.07;100.00;96613.94;4967100;28;20553;-55
2022/02/07 10:13:04;;;;;;;3.30;3.10;;;;;;;4.29;100.00;96594.13;4969214;28;20472;-55
2022/02/07 10:15:39;;;;;;;3.53;3.22;;;;;;;4.22;100.00;96620.75;4969319;28;20129;-58
2022/02/07 10:18:16;;;;;;;4.88;3.60;;;;;;;4.17;100.00;96617.63;4966447;28;20054;-56
2022/02/07 10:38:08;;;;;;;5.97;3.28;;;;;;;5.18;100.00;96648.13;4956126;28;20133;-54
2022/02/07 10:40:40;;;;;;;3.10;2.83;;;;;;;4.85;100.00;96637.38;4968192;28;20121;-50
2022/02/07 10:43:44;;;;;;;4.63;3.28;;;;;;;4.61;100.00;96639.88;4967317;28;20074;-59
2022/02/07 10:46:17;;;;;;;3.38;2.85;;;;;;;5.11;100.00;96644.28;4963605;28;20086;-55
2022/02/07 10:48:48;;;;;;;4.65;3.38;;;;;;;4.91;100.00;96650.03;4968599;28;20540;-54
2022/02/07 10:51:19;;;;;;;4.22;3.22;;;;;;;4.96;100.00;96653.19;4968892;28;20067;-58
2022/02/07 10:53:49;;;;;;;3.38;2.97;;;;;;;4.99;100.00;96653.81;4967575;28;20093;-53
2022/02/07 10:56:20;;;;;;;3.72;2.92;;;;;;;4.80;100.00;96650.78;4970735;28;20105;-54
2022/02/07 10:58:52;;;;;;;4.55;3.08;;;;;;;4.62;100.00;96660.69;4967479;28;20082;-54
2022/02/07 11:01:29;;;;;;;5.60;3.08;;;;;;;4.93;100.00;96664.69;4969016;28;20061;-55
2022/02/07 11:04:02;;;;;;;3.60;3.30;;;;;;;4.89;100.00;96673.69;4967868;28;20458;-57
2022/02/07 11:06:34;;;;;;;4.43;2.90;;;;;;;4.73;100.00;96681.69;4967665;28;20492;-58
2022/02/07 11:09:11;;;;;;;3.63;3.28;;;;;;;4.59;100.00;96686.19;4967064;28;20066;-59
2022/02/07 11:11:58;;;;;;;3.42;3.13;;;;;;;4.68;100.00;96682.94;4967224;28;20093;-51
2022/02/07 11:14:47;;;;;;;5.93;3.25;;;;;;;4.71;100.00;96701.88;4969198;28;20526;-58
2022/02/07 11:17:29;;;;;;;7.20;3.25;;;;;;;4.80;100.00;96703.03;4965607;28;20536;-53
2022/02/07 11:20:24;;;;;;;5.38;3.45;;;;;;;4.71;100.00;96696.66;4966195;28;20085;-54
2022/02/07 11:23:08;;;;;;;6.65;3.40;;;;;;;4.60;100.00;96701.75;4963990;28;20081;-54
2022/02/07 11:25:44;;;;;;;5.30;3.00;;;;;;;4.96;100.00;96705.47;4964346;28;20066;-57
2022/02/07 11:28:14;;;;;;;3.92;3.15;;;;;;;4.77;100.00;96726.75;4967116;28;20101;-50
2022/02/07 11:30:47;;;;;;;6.28;3.80;;;;;;;4.68;100.00;96722.97;4965839;28;20074;-56
2022/02/07 11:33:34;;;;;;;4.80;3.30;;;;;;;4.54;100.00;96715.19;4965971;28;20066;-54
2022/02/07 11:36:04;;;;;;;5.50;3.58;;;;;;;4.50;100.00;96711.13;4965676;28;20075;-52
2022/02/07 11:38:32;;;;;;;4.13;3.53;;;;;;;4.73;100.00;96723.50;4969640;28;20093;-53
2022/02/07 11:41:03;;;;;;;3.88;3.47;;;;;;;4.72;100.00;96729.69;4966180;28;20077;-51
2022/02/07 11:43:33;;;;;;;5.05;3.00;;;;;;;4.64;100.00;96707.59;4965549;28;20073;-53
2022/02/07 11:46:05;;;;;;;7.38;3.65;;;;;;;4.90;100.00;96745.06;4966773;28;20101;-51
2022/02/07 11:48:37;;;;;;;3.42;3.10;;;;;;;5.09;100.00;96742.88;4966578;28;20078;-54
2022/02/07 11:51:11;;;;;;;3.80;3.40;;;;;;;5.01;100.00;96758.25;4966600;28;20077;-50
2022/02/07 11:53:45;;;;;;;5.65;3.63;;;;;;;4.94;100.00;96747.34;4967145;28;20078;-53
2022/02/07 11:56:21;;;;;;;4.93;3.63;;;;;;;4.83;100.00;96747.25;4972479;28;20223;-54
2022/02/07 11:59:21;;;;;;;3.90;3.22;;;;;;;5.13;100.00;96767.06;4965616;28;20070;-53
2022/02/07 12:01:59;;;;;;;5.85;3.78;;;;;;;4.90;100.00;96768.56;4964792;28;20657;-56
2022/02/07 12:04:37;;;;;;;4.40;3.35;;;;;;;4.89;100.00;96769.53;4965850;28;20137;-53
2022/02/07 12:07:16;;;;;;;9.18;3.70;;;;;;;5.10;100.00;96783.78;4967923;28;20077;-55
2022/02/07 12:10:27;;;;;;;3.70;3.40;;;;;;;4.85;100.00;96773.25;4966962;28;20075;-55
2022/02/07 12:12:58;;;;;;;5.70;3.35;;;;;;;4.88;100.00;96779.13;4946490;28;20518;-57
2022/02/07 12:15:33;;;;;;;6.72;3.97;;;;;;;4.98;100.00;96763.66;4965566;28;20521;-56
2022/02/07 12:18:19;;;;;;;5.85;3.60;;;;;;;4.93;100.00;96745.69;4966642;28;20478;-57
2022/02/07 12:20:52;;;;;;;3.50;3.20;;;;;;;5.29;100.00;96798.22;4966379;28;20090;-60
2022/02/07 12:23:22;;;;;;;4.65;3.35;;;;;;;5.06;100.00;96790.16;4968332;28;20086;-55
2022/02/07 12:25:56;;;;;;;12.43;3.20;;;;;;;5.11;100.00;96821.19;4965591;28;20062;-58
2022/02/07 12:28:32;;;;;;;7.07;3.08;;;;;;;4.72;100.00;96794.97;4967403;28;20498;-54
2022/02/07 12:31:10;;;;;;;4.40;3.05;;;;;;;4.93;100.00;96797.13;4973233;28;20529;-58
2022/02/07 12:33:40;;;;;;;7.57;3.30;;;;;;;4.92;100.00;96798.03;4968157;28;20093;-57
2022/02/07 12:36:09;;;;;;;3.30;3.00;;;;;;;4.73;100.00;96799.25;4971184;28;20070;-58
2022/02/07 12:38:40;;;;;;;2.80;2.53;;;;;;;4.89;100.00;96830.47;4969475;28;20121;-53
2022/02/07 12:41:11;;;;;;;3.13;2.90;;;;;;;4.73;100.00;96817.53;4965579;28;22894;-57
2022/02/07 12:43:40;;;;;;;5.50;3.28;;;;;;;4.78;100.00;96819.03;4966534;28;20216;-60
2022/02/07 12:46:11;;;;;;;3.20;2.87;;;;;;;4.87;100.00;96852.41;4971799;28;20624;-53
2022/02/07 12:48:49;;;;;;;;;;;;;;;4.60;100.00;96841.94;4972027;28;20093;-57
2022/02/07 12:51:19;;;;;;;3.78;3.47;;;;;;;4.64;100.00;96846.88;4965569;28;19972;-56
2022/02/07 12:53:48;;;;;;;7.03;3.72;;;;;;;4.76;100.00;96851.31;4965335;28;20083;-54
2022/02/07 12:56:17;;;;;;;3.25;2.80;;;;;;;4.90;100.00;96844.34;4968008;28;20732;-58
2022/02/07 12:58:46;;;;;;;3.78;3.25;;;;;;;4.63;100.00;96852.19;4965766;28;20533;-54
2022/02/07 13:01:23;;;;;;;3.60;3.30;;;;;;;4.73;100.00;96853.28;4955876;28;20529;-53
2022/02/07 13:03:55;;;;;;;3.47;3.17;;;;;;;4.74;100.00;96873.25;4956389;28;20073;-54
2022/02/07 13:06:30;;;;;;;3.58;3.22;;;;;;;4.49;100.00;96859.13;4961270;28;20517;-53
2022/02/07 13:09:21;;;;;;;3.50;3.20;;;;;;;4.77;100.00;96873.06;4965153;28;20070;-54
2022/02/07 13:12:01;;;;;;;7.18;4.47;;;;;;;4.62;100.00;96861.81;4967204;28;20074;-51
2022/02/07 13:14:31;;;;;;;4.82;3.05;;;;;;;4.62;100.00;96840.09;4960510;28;20082;-53
2022/02/07 13:16:59;;;;;;;6.27;3.70;;;;;;;4.59;100.00;96869.00;4964418;28;20063;-53
2022/02/07 13:19:36;;;;;;;4.10;3.55;;;;;;;4.40;100.00;96871.94;4956604;28;20078;-51
2022/02/07 13:22:05;;;;;;;8.25;3.20;;;;;;;4.55;100.00;96873.59;4959641;28;20070;-54
2022/02/07 13:24:35;;;;;;;3.92;3.35;;;;;;;4.67;100.00;96869.34;4965155;28;20071;-55